sensor_id;sensor_type;location;lat;lon;timestamp;P1;durP1;ratioP1;P2;durP2;ratioP2
10450;SDS011;5273;51.290;6.918;2023-05-10T00:01:19;11.60;;;9.15;;
10450;SDS011;5273;51.290;6.918;2023-05-10T00:03:46;11.98;;;9.43;;
10450;SDS011;5273;51.290;6.918;2023-05-10T00:06:13;12.25;;;9.68;;
10450;SDS011;5273;51.290;6.918;2023-05-10T00:08:40;12.00;;;8.80;;
10450;SDS011;5273;51.290;6.918;2023-05-10T00:11:08;11.88;;;8.93;;
10450;SDS011;5273;51.290;6.918;2023-05-10T00:13:35;10.90;;;8.20;;
10450;SDS011;5273;51.290;6.918;2023-05-10T00:16:02;12.13;;;8.82;;
10450;SDS011;5273;51.290;6.918;2023-05-10T00:18:29;12.55;;;9.43;;
10450;SDS011;5273;51.290;6.918;2023-05-10T00:20:55;11.05;;;9.07;;
10450;SDS011;5273;51.290;6.918;2023-05-10T00:23:22;13.10;;;9.30;;
10450;SDS011;5273;51.290;6.918;2023-05-10T00:25:49;12.48;;;8.90;;
10450;SDS011;5273;51.290;6.918;2023-05-10T00:28:17;12.98;;;9.23;;
10450;SDS011;5273;51.290;6.918;2023-05-10T00:30:44;13.35;;;9.10;;
10450;SDS011;5273;51.290;6.918;2023-05-10T00:33:10;13.65;;;9.70;;
10450;SDS011;5273;51.290;6.918;2023-05-10T00:35:37;13.27;;;9.30;;
10450;SDS011;5273;51.290;6.918;2023-05-10T00:38:04;12.98;;;9.73;;
10450;SDS011;5273;51.290;6.918;2023-05-10T00:40:31;13.45;;;9.50;;
10450;SDS011;5273;51.290;6.918;2023-05-10T00:42:58;14.18;;;10.18;;
10450;SDS011;5273;51.290;6.918;2023-05-10T00:45:27;14.18;;;9.82;;
10450;SDS011;5273;51.290;6.918;2023-05-10T00:47:54;13.27;;;9.68;;
10450;SDS011;5273;51.290;6.918;2023-05-10T00:50:21;14.40;;;10.57;;
10450;SDS011;5273;51.290;6.918;2023-05-10T00:52:48;13.50;;;9.93;;
10450;SDS011;5273;51.290;6.918;2023-05-10T00:55:16;14.60;;;11.00;;
10450;SDS011;5273;51.290;6.918;2023-05-10T00:57:43;14.65;;;10.48;;
10450;SDS011;5273;51.290;6.918;2023-05-10T01:00:11;16.38;;;12.40;;
10450;SDS011;5273;51.290;6.918;2023-05-10T01:02:44;15.95;;;11.75;;
10450;SDS011;5273;51.290;6.918;2023-05-10T01:05:11;15.77;;;12.15;;
10450;SDS011;5273;51.290;6.918;2023-05-10T01:07:39;18.48;;;13.05;;
10450;SDS011;5273;51.290;6.918;2023-05-10T01:10:06;13.65;;;11.70;;
10450;SDS011;5273;51.290;6.918;2023-05-10T01:12:34;14.18;;;11.45;;
10450;SDS011;5273;51.290;6.918;2023-05-10T01:15:04;16.20;;;12.15;;
10450;SDS011;5273;51.290;6.918;2023-05-10T01:17:33;16.17;;;12.25;;
10450;SDS011;5273;51.290;6.918;2023-05-10T01:20:02;16.80;;;12.95;;
10450;SDS011;5273;51.290;6.918;2023-05-10T01:22:38;14.65;;;11.38;;
10450;SDS011;5273;51.290;6.918;2023-05-10T01:25:28;17.02;;;12.77;;
10450;SDS011;5273;51.290;6.918;2023-05-10T01:28:23;16.00;;;12.23;;
10450;SDS011;5273;51.290;6.918;2023-05-10T01:31:28;14.73;;;11.82;;
10450;SDS011;5273;51.290;6.918;2023-05-10T01:34:06;17.10;;;12.50;;
10450;SDS011;5273;51.290;6.918;2023-05-10T01:36:39;16.15;;;12.32;;
10450;SDS011;5273;51.290;6.918;2023-05-10T01:39:12;16.98;;;11.85;;
10450;SDS011;5273;51.290;6.918;2023-05-10T01:41:47;16.80;;;12.55;;
10450;SDS011;5273;51.290;6.918;2023-05-10T01:44:18;17.30;;;11.98;;
10450;SDS011;5273;51.290;6.918;2023-05-10T01:46:53;14.52;;;11.95;;
10450;SDS011;5273;51.290;6.918;2023-05-10T01:49:26;15.60;;;11.52;;
10450;SDS011;5273;51.290;6.918;2023-05-10T01:51:59;14.52;;;10.77;;
10450;SDS011;5273;51.290;6.918;2023-05-10T01:54:31;13.60;;;10.68;;
10450;SDS011;5273;51.290;6.918;2023-05-10T01:57:01;17.07;;;11.97;;
10450;SDS011;5273;51.290;6.918;2023-05-10T01:59:33;15.02;;;11.45;;
10450;SDS011;5273;51.290;6.918;2023-05-10T02:02:04;17.42;;;11.95;;
10450;SDS011;5273;51.290;6.918;2023-05-10T02:04:33;18.40;;;12.95;;
10450;SDS011;5273;51.290;6.918;2023-05-10T02:07:03;18.35;;;13.18;;
10450;SDS011;5273;51.290;6.918;2023-05-10T02:09:31;18.35;;;13.20;;
10450;SDS011;5273;51.290;6.918;2023-05-10T02:11:59;18.13;;;12.85;;
10450;SDS011;5273;51.290;6.918;2023-05-10T02:14:28;20.55;;;12.95;;
10450;SDS011;5273;51.290;6.918;2023-05-10T02:16:58;20.40;;;13.68;;
10450;SDS011;5273;51.290;6.918;2023-05-10T02:19:26;21.25;;;14.05;;
10450;SDS011;5273;51.290;6.918;2023-05-10T02:21:56;18.70;;;12.75;;
10450;SDS011;5273;51.290;6.918;2023-05-10T02:24:24;17.85;;;12.85;;
10450;SDS011;5273;51.290;6.918;2023-05-10T02:26:53;16.05;;;11.88;;
10450;SDS011;5273;51.290;6.918;2023-05-10T02:29:20;19.40;;;12.85;;
10450;SDS011;5273;51.290;6.918;2023-05-10T02:31:49;17.70;;;12.63;;
10450;SDS011;5273;51.290;6.918;2023-05-10T02:34:18;20.38;;;11.52;;
10450;SDS011;5273;51.290;6.918;2023-05-10T02:36:47;16.15;;;11.63;;
10450;SDS011;5273;51.290;6.918;2023-05-10T02:39:15;16.08;;;10.88;;
10450;SDS011;5273;51.290;6.918;2023-05-10T02:41:45;15.57;;;10.98;;
10450;SDS011;5273;51.290;6.918;2023-05-10T02:44:14;16.65;;;11.75;;
10450;SDS011;5273;51.290;6.918;2023-05-10T02:46:42;18.10;;;10.98;;
10450;SDS011;5273;51.290;6.918;2023-05-10T02:49:09;14.07;;;10.25;;
10450;SDS011;5273;51.290;6.918;2023-05-10T02:51:37;14.77;;;9.40;;
10450;SDS011;5273;51.290;6.918;2023-05-10T02:54:09;13.43;;;9.25;;
10450;SDS011;5273;51.290;6.918;2023-05-10T02:56:40;14.82;;;10.05;;
10450;SDS011;5273;51.290;6.918;2023-05-10T02:59:13;14.38;;;10.05;;
10450;SDS011;5273;51.290;6.918;2023-05-10T03:01:40;15.90;;;10.43;;
10450;SDS011;5273;51.290;6.918;2023-05-10T03:04:07;16.52;;;11.07;;
10450;SDS011;5273;51.290;6.918;2023-05-10T03:06:33;17.77;;;11.75;;
10450;SDS011;5273;51.290;6.918;2023-05-10T03:09:01;15.55;;;11.25;;
10450;SDS011;5273;51.290;6.918;2023-05-10T03:11:32;15.40;;;11.05;;
10450;SDS011;5273;51.290;6.918;2023-05-10T03:14:13;17.88;;;11.35;;
10450;SDS011;5273;51.290;6.918;2023-05-10T03:16:51;16.08;;;11.85;;
10450;SDS011;5273;51.290;6.918;2023-05-10T03:19:26;16.27;;;11.07;;
10450;SDS011;5273;51.290;6.918;2023-05-10T03:22:10;19.23;;;12.18;;
10450;SDS011;5273;51.290;6.918;2023-05-10T03:24:39;15.40;;;11.40;;
10450;SDS011;5273;51.290;6.918;2023-05-10T03:27:07;14.23;;;10.52;;
10450;SDS011;5273;51.290;6.918;2023-05-10T03:29:36;19.23;;;11.85;;
10450;SDS011;5273;51.290;6.918;2023-05-10T03:32:05;15.90;;;10.77;;
10450;SDS011;5273;51.290;6.918;2023-05-10T03:34:32;14.90;;;10.85;;
10450;SDS011;5273;51.290;6.918;2023-05-10T03:36:58;14.43;;;10.90;;
10450;SDS011;5273;51.290;6.918;2023-05-10T03:39:25;17.80;;;11.05;;
10450;SDS011;5273;51.290;6.918;2023-05-10T03:41:52;15.20;;;11.20;;
10450;SDS011;5273;51.290;6.918;2023-05-10T03:44:19;15.48;;;10.57;;
10450;SDS011;5273;51.290;6.918;2023-05-10T03:46:47;13.63;;;11.00;;
10450;SDS011;5273;51.290;6.918;2023-05-10T03:49:14;15.82;;;10.63;;
10450;SDS011;5273;51.290;6.918;2023-05-10T03:51:40;15.02;;;10.98;;
10450;SDS011;5273;51.290;6.918;2023-05-10T03:54:07;15.60;;;11.23;;
10450;SDS011;5273;51.290;6.918;2023-05-10T03:56:34;15.07;;;11.07;;
10450;SDS011;5273;51.290;6.918;2023-05-10T03:59:01;16.50;;;11.48;;
10450;SDS011;5273;51.290;6.918;2023-05-10T04:01:32;15.77;;;11.10;;
10450;SDS011;5273;51.290;6.918;2023-05-10T04:04:00;19.48;;;11.70;;
10450;SDS011;5273;51.290;6.918;2023-05-10T04:06:27;20.25;;;11.98;;
10450;SDS011;5273;51.290;6.918;2023-05-10T04:08:53;18.98;;;12.30;;
10450;SDS011;5273;51.290;6.918;2023-05-10T04:11:20;19.10;;;12.73;;
10450;SDS011;5273;51.290;6.918;2023-05-10T04:13:47;19.48;;;12.90;;
10450;SDS011;5273;51.290;6.918;2023-05-10T04:16:14;25.10;;;13.73;;
10450;SDS011;5273;51.290;6.918;2023-05-10T04:18:41;19.17;;;12.57;;
10450;SDS011;5273;51.290;6.918;2023-05-10T04:21:12;19.95;;;13.93;;
10450;SDS011;5273;51.290;6.918;2023-05-10T04:23:39;23.20;;;14.35;;
10450;SDS011;5273;51.290;6.918;2023-05-10T04:26:06;27.73;;;15.45;;
10450;SDS011;5273;51.290;6.918;2023-05-10T04:28:33;24.08;;;14.60;;
10450;SDS011;5273;51.290;6.918;2023-05-10T04:31:02;23.15;;;14.20;;
10450;SDS011;5273;51.290;6.918;2023-05-10T04:33:29;28.23;;;15.60;;
10450;SDS011;5273;51.290;6.918;2023-05-10T04:35:56;23.48;;;15.20;;
10450;SDS011;5273;51.290;6.918;2023-05-10T04:38:24;24.45;;;14.98;;
10450;SDS011;5273;51.290;6.918;2023-05-10T04:40:51;28.85;;;16.63;;
10450;SDS011;5273;51.290;6.918;2023-05-10T04:43:18;28.38;;;17.50;;
10450;SDS011;5273;51.290;6.918;2023-05-10T04:45:45;25.20;;;16.35;;
10450;SDS011;5273;51.290;6.918;2023-05-10T04:48:12;25.88;;;16.02;;
10450;SDS011;5273;51.290;6.918;2023-05-10T04:50:39;26.35;;;16.70;;
10450;SDS011;5273;51.290;6.918;2023-05-10T04:53:05;27.58;;;16.02;;
10450;SDS011;5273;51.290;6.918;2023-05-10T04:55:33;26.90;;;17.42;;
10450;SDS011;5273;51.290;6.918;2023-05-10T04:58:00;29.52;;;17.63;;
10450;SDS011;5273;51.290;6.918;2023-05-10T05:00:27;28.00;;;17.50;;
10450;SDS011;5273;51.290;6.918;2023-05-10T05:02:54;31.48;;;18.42;;
10450;SDS011;5273;51.290;6.918;2023-05-10T05:05:21;29.30;;;16.73;;
10450;SDS011;5273;51.290;6.918;2023-05-10T05:07:48;27.92;;;17.88;;
10450;SDS011;5273;51.290;6.918;2023-05-10T05:10:15;33.83;;;18.50;;
10450;SDS011;5273;51.290;6.918;2023-05-10T05:12:43;31.35;;;17.63;;
10450;SDS011;5273;51.290;6.918;2023-05-10T05:15:10;27.15;;;16.73;;
10450;SDS011;5273;51.290;6.918;2023-05-10T05:17:37;31.30;;;17.48;;
10450;SDS011;5273;51.290;6.918;2023-05-10T05:20:04;29.58;;;17.65;;
10450;SDS011;5273;51.290;6.918;2023-05-10T05:22:31;25.48;;;17.40;;
10450;SDS011;5273;51.290;6.918;2023-05-10T05:24:58;25.92;;;16.77;;
10450;SDS011;5273;51.290;6.918;2023-05-10T05:27:27;27.58;;;16.65;;
10450;SDS011;5273;51.290;6.918;2023-05-10T05:29:55;30.60;;;17.50;;
10450;SDS011;5273;51.290;6.918;2023-05-10T05:32:23;31.38;;;18.23;;
10450;SDS011;5273;51.290;6.918;2023-05-10T05:34:50;28.02;;;17.38;;
10450;SDS011;5273;51.290;6.918;2023-05-10T05:37:17;29.08;;;18.30;;
10450;SDS011;5273;51.290;6.918;2023-05-10T05:39:46;29.60;;;18.67;;
10450;SDS011;5273;51.290;6.918;2023-05-10T05:42:13;30.95;;;17.73;;
10450;SDS011;5273;51.290;6.918;2023-05-10T05:44:41;29.90;;;16.92;;
10450;SDS011;5273;51.290;6.918;2023-05-10T05:47:09;27.58;;;17.35;;
10450;SDS011;5273;51.290;6.918;2023-05-10T05:49:36;26.33;;;17.48;;
10450;SDS011;5273;51.290;6.918;2023-05-10T05:52:03;25.75;;;16.20;;
10450;SDS011;5273;51.290;6.918;2023-05-10T05:54:30;25.63;;;16.05;;
10450;SDS011;5273;51.290;6.918;2023-05-10T05:56:58;25.77;;;16.50;;
10450;SDS011;5273;51.290;6.918;2023-05-10T05:59:25;28.05;;;16.23;;
10450;SDS011;5273;51.290;6.918;2023-05-10T06:01:52;23.98;;;15.98;;
10450;SDS011;5273;51.290;6.918;2023-05-10T06:04:20;23.80;;;15.68;;
10450;SDS011;5273;51.290;6.918;2023-05-10T06:06:47;24.48;;;16.23;;
10450;SDS011;5273;51.290;6.918;2023-05-10T06:09:14;25.50;;;15.95;;
10450;SDS011;5273;51.290;6.918;2023-05-10T06:11:41;22.23;;;14.60;;
10450;SDS011;5273;51.290;6.918;2023-05-10T06:14:07;21.73;;;14.57;;
10450;SDS011;5273;51.290;6.918;2023-05-10T06:16:34;24.17;;;14.38;;
10450;SDS011;5273;51.290;6.918;2023-05-10T06:19:01;20.08;;;13.40;;
10450;SDS011;5273;51.290;6.918;2023-05-10T06:21:29;22.17;;;12.95;;
10450;SDS011;5273;51.290;6.918;2023-05-10T06:23:56;21.50;;;13.95;;
10450;SDS011;5273;51.290;6.918;2023-05-10T06:26:23;25.75;;;14.45;;
10450;SDS011;5273;51.290;6.918;2023-05-10T06:28:50;33.88;;;16.10;;
10450;SDS011;5273;51.290;6.918;2023-05-10T06:31:17;31.05;;;14.98;;
10450;SDS011;5273;51.290;6.918;2023-05-10T06:33:44;25.08;;;14.07;;
10450;SDS011;5273;51.290;6.918;2023-05-10T06:36:10;23.20;;;15.10;;
10450;SDS011;5273;51.290;6.918;2023-05-10T06:38:39;26.80;;;16.15;;
10450;SDS011;5273;51.290;6.918;2023-05-10T06:41:06;26.77;;;15.88;;
10450;SDS011;5273;51.290;6.918;2023-05-10T06:43:33;25.02;;;16.10;;
10450;SDS011;5273;51.290;6.918;2023-05-10T06:46:00;25.13;;;16.35;;
10450;SDS011;5273;51.290;6.918;2023-05-10T06:48:26;25.45;;;15.38;;
10450;SDS011;5273;51.290;6.918;2023-05-10T06:50:53;22.88;;;16.20;;
10450;SDS011;5273;51.290;6.918;2023-05-10T06:53:20;26.05;;;15.77;;
10450;SDS011;5273;51.290;6.918;2023-05-10T06:55:50;30.10;;;16.15;;
10450;SDS011;5273;51.290;6.918;2023-05-10T06:58:17;23.08;;;15.57;;
10450;SDS011;5273;51.290;6.918;2023-05-10T07:00:43;25.25;;;15.38;;
10450;SDS011;5273;51.290;6.918;2023-05-10T07:03:11;28.77;;;16.42;;
10450;SDS011;5273;51.290;6.918;2023-05-10T07:05:38;22.02;;;15.52;;
10450;SDS011;5273;51.290;6.918;2023-05-10T07:08:05;30.13;;;16.92;;
10450;SDS011;5273;51.290;6.918;2023-05-10T07:10:32;29.67;;;17.33;;
10450;SDS011;5273;51.290;6.918;2023-05-10T07:13:00;34.60;;;17.60;;
10450;SDS011;5273;51.290;6.918;2023-05-10T07:15:27;33.17;;;17.95;;
10450;SDS011;5273;51.290;6.918;2023-05-10T07:17:54;32.75;;;18.45;;
10450;SDS011;5273;51.290;6.918;2023-05-10T07:20:21;30.58;;;18.33;;
10450;SDS011;5273;51.290;6.918;2023-05-10T07:22:48;34.10;;;18.83;;
10450;SDS011;5273;51.290;6.918;2023-05-10T07:25:15;30.90;;;17.92;;
10450;SDS011;5273;51.290;6.918;2023-05-10T07:27:41;33.42;;;18.33;;
10450;SDS011;5273;51.290;6.918;2023-05-10T07:30:10;28.85;;;16.80;;
10450;SDS011;5273;51.290;6.918;2023-05-10T07:32:38;29.65;;;17.45;;
10450;SDS011;5273;51.290;6.918;2023-05-10T07:35:07;27.45;;;16.08;;
10450;SDS011;5273;51.290;6.918;2023-05-10T07:37:34;26.27;;;16.10;;
10450;SDS011;5273;51.290;6.918;2023-05-10T07:40:01;25.40;;;15.35;;
10450;SDS011;5273;51.290;6.918;2023-05-10T07:42:28;29.08;;;15.52;;
10450;SDS011;5273;51.290;6.918;2023-05-10T07:44:54;25.00;;;14.48;;
10450;SDS011;5273;51.290;6.918;2023-05-10T07:47:22;23.35;;;15.23;;
10450;SDS011;5273;51.290;6.918;2023-05-10T07:49:49;28.02;;;14.70;;
10450;SDS011;5273;51.290;6.918;2023-05-10T07:52:16;24.05;;;14.88;;
10450;SDS011;5273;51.290;6.918;2023-05-10T07:54:43;26.65;;;14.57;;
10450;SDS011;5273;51.290;6.918;2023-05-10T07:57:10;25.95;;;14.35;;
10450;SDS011;5273;51.290;6.918;2023-05-10T07:59:39;23.92;;;14.35;;
10450;SDS011;5273;51.290;6.918;2023-05-10T08:02:06;20.90;;;14.05;;
10450;SDS011;5273;51.290;6.918;2023-05-10T08:04:34;22.30;;;13.48;;
10450;SDS011;5273;51.290;6.918;2023-05-10T08:07:01;20.80;;;13.45;;
10450;SDS011;5273;51.290;6.918;2023-05-10T08:09:28;24.80;;;13.30;;
10450;SDS011;5273;51.290;6.918;2023-05-10T08:11:54;19.15;;;12.40;;
10450;SDS011;5273;51.290;6.918;2023-05-10T08:14:21;19.63;;;12.68;;
10450;SDS011;5273;51.290;6.918;2023-05-10T08:16:48;18.88;;;12.70;;
10450;SDS011;5273;51.290;6.918;2023-05-10T08:19:15;19.88;;;12.60;;
10450;SDS011;5273;51.290;6.918;2023-05-10T08:21:45;19.20;;;12.05;;
10450;SDS011;5273;51.290;6.918;2023-05-10T08:24:12;20.92;;;12.85;;
10450;SDS011;5273;51.290;6.918;2023-05-10T08:26:38;22.27;;;12.80;;
10450;SDS011;5273;51.290;6.918;2023-05-10T08:29:05;26.10;;;15.98;;
10450;SDS011;5273;51.290;6.918;2023-05-10T08:31:32;25.48;;;14.98;;
10450;SDS011;5273;51.290;6.918;2023-05-10T08:33:59;26.95;;;15.82;;
10450;SDS011;5273;51.290;6.918;2023-05-10T08:36:26;32.42;;;17.75;;
10450;SDS011;5273;51.290;6.918;2023-05-10T08:38:54;29.35;;;18.45;;
10450;SDS011;5273;51.290;6.918;2023-05-10T08:41:21;29.25;;;18.20;;
10450;SDS011;5273;51.290;6.918;2023-05-10T08:43:51;30.38;;;18.45;;
10450;SDS011;5273;51.290;6.918;2023-05-10T08:46:18;28.80;;;18.15;;
10450;SDS011;5273;51.290;6.918;2023-05-10T08:48:47;33.08;;;19.52;;
10450;SDS011;5273;51.290;6.918;2023-05-10T08:51:17;27.77;;;18.45;;
10450;SDS011;5273;51.290;6.918;2023-05-10T08:53:45;27.63;;;18.02;;
10450;SDS011;5273;51.290;6.918;2023-05-10T08:56:13;31.13;;;17.17;;
10450;SDS011;5273;51.290;6.918;2023-05-10T08:58:42;30.95;;;18.63;;
10450;SDS011;5273;51.290;6.918;2023-05-10T09:01:09;29.95;;;18.58;;
10450;SDS011;5273;51.290;6.918;2023-05-10T09:03:38;30.58;;;19.63;;
10450;SDS011;5273;51.290;6.918;2023-05-10T09:06:05;32.20;;;19.13;;
10450;SDS011;5273;51.290;6.918;2023-05-10T09:08:33;29.80;;;18.80;;
10450;SDS011;5273;51.290;6.918;2023-05-10T09:11:02;31.02;;;18.92;;
10450;SDS011;5273;51.290;6.918;2023-05-10T09:13:30;29.45;;;18.42;;
10450;SDS011;5273;51.290;6.918;2023-05-10T09:15:58;29.48;;;18.13;;
10450;SDS011;5273;51.290;6.918;2023-05-10T09:18:27;26.75;;;18.00;;
10450;SDS011;5273;51.290;6.918;2023-05-10T09:20:54;27.52;;;18.02;;
10450;SDS011;5273;51.290;6.918;2023-05-10T09:23:21;26.75;;;18.27;;
10450;SDS011;5273;51.290;6.918;2023-05-10T09:25:48;27.42;;;17.63;;
10450;SDS011;5273;51.290;6.918;2023-05-10T09:28:32;26.90;;;18.13;;
10450;SDS011;5273;51.290;6.918;2023-05-10T09:30:59;28.45;;;18.35;;
10450;SDS011;5273;51.290;6.918;2023-05-10T09:33:26;30.08;;;19.08;;
10450;SDS011;5273;51.290;6.918;2023-05-10T09:35:53;30.27;;;17.85;;
10450;SDS011;5273;51.290;6.918;2023-05-10T09:38:20;28.50;;;17.08;;
10450;SDS011;5273;51.290;6.918;2023-05-10T09:40:50;25.67;;;16.67;;
10450;SDS011;5273;51.290;6.918;2023-05-10T09:43:19;27.25;;;15.55;;
10450;SDS011;5273;51.290;6.918;2023-05-10T09:45:48;26.33;;;14.95;;
10450;SDS011;5273;51.290;6.918;2023-05-10T09:48:15;22.67;;;15.10;;
10450;SDS011;5273;51.290;6.918;2023-05-10T09:50:42;24.48;;;14.13;;
10450;SDS011;5273;51.290;6.918;2023-05-10T09:53:08;22.02;;;14.52;;
10450;SDS011;5273;51.290;6.918;2023-05-10T09:55:40;18.80;;;13.00;;
10450;SDS011;5273;51.290;6.918;2023-05-10T09:58:09;23.25;;;13.32;;
10450;SDS011;5273;51.290;6.918;2023-05-10T10:00:37;16.20;;;12.38;;
10450;SDS011;5273;51.290;6.918;2023-05-10T10:03:12;21.38;;;13.00;;
10450;SDS011;5273;51.290;6.918;2023-05-10T10:05:40;15.07;;;11.27;;
10450;SDS011;5273;51.290;6.918;2023-05-10T10:08:08;15.23;;;10.35;;
10450;SDS011;5273;51.290;6.918;2023-05-10T10:10:35;15.13;;;10.82;;
10450;SDS011;5273;51.290;6.918;2023-05-10T10:13:03;12.15;;;9.38;;
10450;SDS011;5273;51.290;6.918;2023-05-10T10:15:30;13.40;;;9.82;;
10450;SDS011;5273;51.290;6.918;2023-05-10T10:17:58;12.55;;;9.75;;
10450;SDS011;5273;51.290;6.918;2023-05-10T10:20:27;14.18;;;9.73;;
10450;SDS011;5273;51.290;6.918;2023-05-10T10:22:54;13.68;;;9.77;;
10450;SDS011;5273;51.290;6.918;2023-05-10T10:25:21;14.60;;;9.05;;
10450;SDS011;5273;51.290;6.918;2023-05-10T10:27:49;12.18;;;9.55;;
10450;SDS011;5273;51.290;6.918;2023-05-10T10:30:30;14.70;;;10.13;;
10450;SDS011;5273;51.290;6.918;2023-05-10T10:33:08;15.55;;;10.95;;
10450;SDS011;5273;51.290;6.918;2023-05-10T10:35:55;14.63;;;11.05;;
10450;SDS011;5273;51.290;6.918;2023-05-10T10:38:24;15.35;;;11.35;;
10450;SDS011;5273;51.290;6.918;2023-05-10T10:41:01;18.25;;;11.77;;
10450;SDS011;5273;51.290;6.918;2023-05-10T10:43:29;18.40;;;11.32;;
10450;SDS011;5273;51.290;6.918;2023-05-10T10:46:11;15.20;;;11.45;;
10450;SDS011;5273;51.290;6.918;2023-05-10T10:48:39;18.40;;;12.60;;
10450;SDS011;5273;51.290;6.918;2023-05-10T10:51:07;18.52;;;11.63;;
10450;SDS011;5273;51.290;6.918;2023-05-10T10:53:34;16.98;;;11.95;;
10450;SDS011;5273;51.290;6.918;2023-05-10T10:56:07;15.15;;;11.35;;
10450;SDS011;5273;51.290;6.918;2023-05-10T10:58:35;13.73;;;10.88;;
10450;SDS011;5273;51.290;6.918;2023-05-10T11:01:09;18.48;;;12.05;;
10450;SDS011;5273;51.290;6.918;2023-05-10T11:03:37;15.35;;;11.13;;
10450;SDS011;5273;51.290;6.918;2023-05-10T11:06:04;14.95;;;11.15;;
10450;SDS011;5273;51.290;6.918;2023-05-10T11:08:32;15.32;;;11.30;;
10450;SDS011;5273;51.290;6.918;2023-05-10T11:11:04;13.73;;;10.20;;
10450;SDS011;5273;51.290;6.918;2023-05-10T11:13:38;16.85;;;11.10;;
10450;SDS011;5273;51.290;6.918;2023-05-10T11:16:09;19.10;;;11.68;;
10450;SDS011;5273;51.290;6.918;2023-05-10T11:18:49;13.93;;;10.20;;
10450;SDS011;5273;51.290;6.918;2023-05-10T11:21:19;11.38;;;9.68;;
10450;SDS011;5273;51.290;6.918;2023-05-10T11:23:50;13.35;;;9.68;;
10450;SDS011;5273;51.290;6.918;2023-05-10T11:26:21;14.75;;;10.18;;
10450;SDS011;5273;51.290;6.918;2023-05-10T11:28:51;17.25;;;9.65;;
10450;SDS011;5273;51.290;6.918;2023-05-10T11:31:20;13.50;;;10.00;;
10450;SDS011;5273;51.290;6.918;2023-05-10T11:33:50;13.90;;;9.88;;
10450;SDS011;5273;51.290;6.918;2023-05-10T11:36:18;16.42;;;10.82;;
10450;SDS011;5273;51.290;6.918;2023-05-10T11:38:46;13.95;;;10.50;;
10450;SDS011;5273;51.290;6.918;2023-05-10T11:41:16;15.23;;;10.93;;
10450;SDS011;5273;51.290;6.918;2023-05-10T11:43:46;14.60;;;11.18;;
10450;SDS011;5273;51.290;6.918;2023-05-10T11:46:14;16.58;;;11.70;;
10450;SDS011;5273;51.290;6.918;2023-05-10T11:48:42;15.93;;;12.63;;
10450;SDS011;5273;51.290;6.918;2023-05-10T11:51:09;14.30;;;12.05;;
10450;SDS011;5273;51.290;6.918;2023-05-10T11:53:37;19.52;;;12.52;;
10450;SDS011;5273;51.290;6.918;2023-05-10T11:56:04;21.95;;;13.30;;
10450;SDS011;5273;51.290;6.918;2023-05-10T11:58:33;20.55;;;14.02;;
10450;SDS011;5273;51.290;6.918;2023-05-10T12:01:00;17.63;;;13.65;;
10450;SDS011;5273;51.290;6.918;2023-05-10T12:03:28;18.58;;;13.85;;
10450;SDS011;5273;51.290;6.918;2023-05-10T12:05:56;17.83;;;13.82;;
10450;SDS011;5273;51.290;6.918;2023-05-10T12:08:24;19.33;;;13.38;;
10450;SDS011;5273;51.290;6.918;2023-05-10T12:10:53;15.38;;;10.98;;
10450;SDS011;5273;51.290;6.918;2023-05-10T12:13:29;13.75;;;10.80;;
10450;SDS011;5273;51.290;6.918;2023-05-10T12:15:58;12.20;;;10.65;;
10450;SDS011;5273;51.290;6.918;2023-05-10T12:18:25;14.02;;;10.77;;
10450;SDS011;5273;51.290;6.918;2023-05-10T12:20:52;12.00;;;10.38;;
10450;SDS011;5273;51.290;6.918;2023-05-10T12:23:19;12.52;;;9.75;;
10450;SDS011;5273;51.290;6.918;2023-05-10T12:25:46;11.43;;;10.05;;
10450;SDS011;5273;51.290;6.918;2023-05-10T12:28:13;14.15;;;11.07;;
10450;SDS011;5273;51.290;6.918;2023-05-10T12:30:40;12.23;;;10.02;;
10450;SDS011;5273;51.290;6.918;2023-05-10T12:33:09;14.10;;;10.32;;
10450;SDS011;5273;51.290;6.918;2023-05-10T12:35:47;14.88;;;11.43;;
10450;SDS011;5273;51.290;6.918;2023-05-10T12:38:24;12.88;;;10.32;;
10450;SDS011;5273;51.290;6.918;2023-05-10T12:40:53;11.23;;;9.98;;
10450;SDS011;5273;51.290;6.918;2023-05-10T12:43:20;12.32;;;9.95;;
10450;SDS011;5273;51.290;6.918;2023-05-10T12:45:47;15.38;;;10.63;;
10450;SDS011;5273;51.290;6.918;2023-05-10T12:48:15;11.60;;;10.05;;
10450;SDS011;5273;51.290;6.918;2023-05-10T12:50:42;15.38;;;10.07;;
10450;SDS011;5273;51.290;6.918;2023-05-10T12:53:08;10.75;;;9.65;;
10450;SDS011;5273;51.290;6.918;2023-05-10T12:55:35;11.90;;;10.07;;
10450;SDS011;5273;51.290;6.918;2023-05-10T12:58:02;12.40;;;9.38;;
10450;SDS011;5273;51.290;6.918;2023-05-10T13:00:29;12.48;;;9.85;;
10450;SDS011;5273;51.290;6.918;2023-05-10T13:02:56;13.55;;;9.93;;
10450;SDS011;5273;51.290;6.918;2023-05-10T13:05:24;10.15;;;8.65;;
10450;SDS011;5273;51.290;6.918;2023-05-10T13:07:50;13.55;;;9.73;;
10450;SDS011;5273;51.290;6.918;2023-05-10T13:10:17;11.10;;;9.13;;
10450;SDS011;5273;51.290;6.918;2023-05-10T13:12:44;11.05;;;9.07;;
10450;SDS011;5273;51.290;6.918;2023-05-10T13:15:11;10.70;;;9.45;;
10450;SDS011;5273;51.290;6.918;2023-05-10T13:17:38;11.13;;;9.07;;
10450;SDS011;5273;51.290;6.918;2023-05-10T13:20:06;11.13;;;8.90;;
10450;SDS011;5273;51.290;6.918;2023-05-10T13:22:34;12.13;;;10.18;;
10450;SDS011;5273;51.290;6.918;2023-05-10T13:25:01;12.65;;;9.82;;
10450;SDS011;5273;51.290;6.918;2023-05-10T13:27:28;12.27;;;10.00;;
10450;SDS011;5273;51.290;6.918;2023-05-10T13:29:55;12.88;;;10.30;;
10450;SDS011;5273;51.290;6.918;2023-05-10T13:32:21;11.38;;;10.18;;
10450;SDS011;5273;51.290;6.918;2023-05-10T13:34:48;13.93;;;10.55;;
10450;SDS011;5273;51.290;6.918;2023-05-10T13:37:15;13.05;;;11.45;;
10450;SDS011;5273;51.290;6.918;2023-05-10T13:39:43;14.57;;;11.00;;
10450;SDS011;5273;51.290;6.918;2023-05-10T13:42:10;13.52;;;11.35;;
10450;SDS011;5273;51.290;6.918;2023-05-10T13:44:37;12.10;;;10.85;;
10450;SDS011;5273;51.290;6.918;2023-05-10T13:47:04;13.25;;;11.77;;
10450;SDS011;5273;51.290;6.918;2023-05-10T13:49:31;13.98;;;10.65;;
10450;SDS011;5273;51.290;6.918;2023-05-10T13:51:58;12.95;;;11.43;;
10450;SDS011;5273;51.290;6.918;2023-05-10T13:54:30;13.77;;;11.48;;
10450;SDS011;5273;51.290;6.918;2023-05-10T13:56:59;14.25;;;10.68;;
10450;SDS011;5273;51.290;6.918;2023-05-10T13:59:25;12.38;;;10.75;;
10450;SDS011;5273;51.290;6.918;2023-05-10T14:01:52;16.58;;;10.73;;
10450;SDS011;5273;51.290;6.918;2023-05-10T14:04:19;11.95;;;10.18;;
10450;SDS011;5273;51.290;6.918;2023-05-10T14:06:46;13.00;;;11.60;;
10450;SDS011;5273;51.290;6.918;2023-05-10T14:09:13;13.55;;;11.98;;
10450;SDS011;5273;51.290;6.918;2023-05-10T14:11:39;12.52;;;11.05;;
10450;SDS011;5273;51.290;6.918;2023-05-10T14:14:09;17.17;;;11.63;;
10450;SDS011;5273;51.290;6.918;2023-05-10T14:16:36;14.38;;;11.25;;
10450;SDS011;5273;51.290;6.918;2023-05-10T14:19:03;13.45;;;11.32;;
10450;SDS011;5273;51.290;6.918;2023-05-10T14:21:30;14.25;;;11.60;;
10450;SDS011;5273;51.290;6.918;2023-05-10T14:23:56;14.15;;;11.63;;
10450;SDS011;5273;51.290;6.918;2023-05-10T14:26:23;14.38;;;10.85;;
10450;SDS011;5273;51.290;6.918;2023-05-10T14:28:51;12.63;;;11.32;;
10450;SDS011;5273;51.290;6.918;2023-05-10T14:31:19;12.93;;;10.63;;
10450;SDS011;5273;51.290;6.918;2023-05-10T14:33:46;15.18;;;12.02;;
10450;SDS011;5273;51.290;6.918;2023-05-10T14:36:13;13.40;;;11.02;;
10450;SDS011;5273;51.290;6.918;2023-05-10T14:38:40;13.48;;;11.63;;
10450;SDS011;5273;51.290;6.918;2023-05-10T14:41:07;13.25;;;11.20;;
10450;SDS011;5273;51.290;6.918;2023-05-10T14:43:34;13.18;;;11.60;;